sensor_id;sensor_type;location;lat;lon;timestamp;temperature;humidity
9201;DHT22;4635;48.686;9.008;2023-04-29T00:00:51;11.20;97.20
9201;DHT22;4635;48.686;9.008;2023-04-29T00:03:41;11.20;99.90
9201;DHT22;4635;48.686;9.008;2023-04-29T01:08:37;11.10;1.00
9201;DHT22;4635;48.686;9.008;2023-04-29T01:11:26;11.00;1.00
9201;DHT22;4635;48.686;9.008;2023-04-29T01:14:13;11.10;1.00
9201;DHT22;4635;48.686;9.008;2023-04-29T01:16:58;11.10;1.00
9201;DHT22;4635;48.686;9.008;2023-04-29T01:19:46;11.10;1.00
9201;DHT22;4635;48.686;9.008;2023-04-29T01:22:47;11.10;1.00
9201;DHT22;4635;48.686;9.008;2023-04-29T02:53:17;10.30;1.00
9201;DHT22;4635;48.686;9.008;2023-04-29T02:56:22;10.30;1.00
9201;DHT22;4635;48.686;9.008;2023-04-29T02:59:25;10.20;1.00
9201;DHT22;4635;48.686;9.008;2023-04-29T03:02:32;10.10;23.20
9201;DHT22;4635;48.686;9.008;2023-04-29T03:05:16;10.10;1.00
9201;DHT22;4635;48.686;9.008;2023-04-29T03:08:14;10.10;1.00
9201;DHT22;4635;48.686;9.008;2023-04-29T04:31:13;9.40;1.00
9201;DHT22;4635;48.686;9.008;2023-04-29T04:34:04;9.30;1.00
9201;DHT22;4635;48.686;9.008;2023-04-29T04:37:07;9.20;1.00
9201;DHT22;4635;48.686;9.008;2023-04-29T04:39:56;9.30;1.00
9201;DHT22;4635;48.686;9.008;2023-04-29T04:42:56;9.30;1.20
9201;DHT22;4635;48.686;9.008;2023-04-29T04:45:42;9.20;1.00
9201;DHT22;4635;48.686;9.008;2023-04-29T06:52:12;13.20;1.00
9201;DHT22;4635;48.686;9.008;2023-04-29T06:54:43;13.60;1.00
9201;DHT22;4635;48.686;9.008;2023-04-29T06:57:13;13.70;94.60
9201;DHT22;4635;48.686;9.008;2023-04-29T06:59:43;13.50;99.90
9201;DHT22;4635;48.686;9.008;2023-04-29T07:02:11;13.30;91.60
9201;DHT22;4635;48.686;9.008;2023-04-29T07:04:43;13.30;99.90
9201;DHT22;4635;48.686;9.008;2023-04-29T07:07:17;13.40;1.00
9201;DHT22;4635;48.686;9.008;2023-04-29T07:09:54;13.80;99.90
9201;DHT22;4635;48.686;9.008;2023-04-29T07:12:26;14.10;1.00
9201;DHT22;4635;48.686;9.008;2023-04-29T07:15:02;14.20;4.80
9201;DHT22;4635;48.686;9.008;2023-04-29T07:27:56;14.00;1.00
9201;DHT22;4635;48.686;9.008;2023-04-29T07:30:31;14.00;1.00
9201;DHT22;4635;48.686;9.008;2023-04-29T07:33:08;14.10;6.30
9201;DHT22;4635;48.686;9.008;2023-04-29T07:35:37;14.20;1.00
9201;DHT22;4635;48.686;9.008;2023-04-29T07:38:10;14.00;1.00
9201;DHT22;4635;48.686;9.008;2023-04-29T07:40:46;13.80;99.90
9201;DHT22;4635;48.686;9.008;2023-04-29T07:43:19;13.60;18.40
9201;DHT22;4635;48.686;9.008;2023-04-29T07:45:47;13.40;1.00
9201;DHT22;4635;48.686;9.008;2023-04-29T07:48:23;13.50;1.00
9201;DHT22;4635;48.686;9.008;2023-04-29T07:50:57;13.60;99.90
9201;DHT22;4635;48.686;9.008;2023-04-29T07:53:42;13.80;1.00
9201;DHT22;4635;48.686;9.008;2023-04-29T07:56:25;13.90;99.90
9201;DHT22;4635;48.686;9.008;2023-04-29T08:02:08;14.50;1.00
9201;DHT22;4635;48.686;9.008;2023-04-29T08:04:41;14.80;99.90
9201;DHT22;4635;48.686;9.008;2023-04-29T08:07:30;14.80;99.90
9201;DHT22;4635;48.686;9.008;2023-04-29T08:10:05;14.70;99.90
9201;DHT22;4635;48.686;9.008;2023-04-29T08:12:45;14.80;1.00
9201;DHT22;4635;48.686;9.008;2023-04-29T08:15:21;14.90;1.00
9201;DHT22;4635;48.686;9.008;2023-04-29T08:18:13;15.20;1.00
9201;DHT22;4635;48.686;9.008;2023-04-29T08:21:03;15.30;1.00
9201;DHT22;4635;48.686;9.008;2023-04-29T08:23:40;15.40;1.00
9201;DHT22;4635;48.686;9.008;2023-04-29T08:26:12;15.60;1.00
9201;DHT22;4635;48.686;9.008;2023-04-29T08:28:46;16.20;99.90
9201;DHT22;4635;48.686;9.008;2023-04-29T08:31:29;16.70;99.90
9201;DHT22;4635;48.686;9.008;2023-04-29T08:34:12;17.00;99.90
9201;DHT22;4635;48.686;9.008;2023-04-29T08:36:47;17.10;99.90
9201;DHT22;4635;48.686;9.008;2023-04-29T08:39:40;17.00;99.90
9201;DHT22;4635;48.686;9.008;2023-04-29T08:42:16;16.70;99.90
9201;DHT22;4635;48.686;9.008;2023-04-29T08:45:45;16.60;30.40
9201;DHT22;4635;48.686;9.008;2023-04-29T08:48:45;17.30;39.00
9201;DHT22;4635;48.686;9.008;2023-04-29T08:51:21;18.70;99.90
9201;DHT22;4635;48.686;9.008;2023-04-29T08:53:55;19.20;99.90
9201;DHT22;4635;48.686;9.008;2023-04-29T08:56:38;18.90;99.90
9201;DHT22;4635;48.686;9.008;2023-04-29T08:59:08;18.30;99.90
9201;DHT22;4635;48.686;9.008;2023-04-29T09:01:49;18.30;99.90
9201;DHT22;4635;48.686;9.008;2023-04-29T09:04:32;17.60;99.90
9201;DHT22;4635;48.686;9.008;2023-04-29T09:07:17;17.60;99.90
9201;DHT22;4635;48.686;9.008;2023-04-29T09:09:52;17.80;99.90
9201;DHT22;4635;48.686;9.008;2023-04-29T09:12:24;17.70;99.90
9201;DHT22;4635;48.686;9.008;2023-04-29T09:14:55;18.00;99.90
9201;DHT22;4635;48.686;9.008;2023-04-29T09:20:46;17.40;99.90
9201;DHT22;4635;48.686;9.008;2023-04-29T09:23:28;16.90;99.90
9201;DHT22;4635;48.686;9.008;2023-04-29T09:26:07;16.60;99.90
9201;DHT22;4635;48.686;9.008;2023-04-29T09:29:07;16.40;99.90
9201;DHT22;4635;48.686;9.008;2023-04-29T09:31:53;16.30;88.60
9201;DHT22;4635;48.686;9.008;2023-04-29T09:34:44;16.30;89.10
9201;DHT22;4635;48.686;9.008;2023-04-29T09:37:34;16.30;77.00
9201;DHT22;4635;48.686;9.008;2023-04-29T09:40:21;16.10;99.90
9201;DHT22;4635;48.686;9.008;2023-04-29T09:43:14;15.90;99.90
9201;DHT22;4635;48.686;9.008;2023-04-29T09:45:57;15.70;99.90
9201;DHT22;4635;48.686;9.008;2023-04-29T09:48:42;15.50;99.90
9201;DHT22;4635;48.686;9.008;2023-04-29T09:51:15;15.30;99.90
9201;DHT22;4635;48.686;9.008;2023-04-29T09:54:00;15.50;1.00
9201;DHT22;4635;48.686;9.008;2023-04-29T09:56:52;15.90;99.90
9201;DHT22;4635;48.686;9.008;2023-04-29T09:59:54;16.10;99.90
9201;DHT22;4635;48.686;9.008;2023-04-29T10:02:37;16.20;99.90
9201;DHT22;4635;48.686;9.008;2023-04-29T10:05:31;16.30;99.90
9201;DHT22;4635;48.686;9.008;2023-04-29T10:08:16;16.30;99.90
9201;DHT22;4635;48.686;9.008;2023-04-29T10:11:09;16.40;99.90
9201;DHT22;4635;48.686;9.008;2023-04-29T10:14:06;17.80;99.90
9201;DHT22;4635;48.686;9.008;2023-04-29T10:16:51;20.30;1.00
9201;DHT22;4635;48.686;9.008;2023-04-29T10:19:32;21.70;91.60
9201;DHT22;4635;48.686;9.008;2023-04-29T10:22:06;22.90;1.00
9201;DHT22;4635;48.686;9.008;2023-04-29T10:24:39;23.60;1.00
9201;DHT22;4635;48.686;9.008;2023-04-29T10:27:11;22.10;91.40
9201;DHT22;4635;48.686;9.008;2023-04-29T10:29:49;21.20;1.00
9201;DHT22;4635;48.686;9.008;2023-04-29T10:32:18;20.10;99.90
9201;DHT22;4635;48.686;9.008;2023-04-29T10:34:53;19.10;1.00
9201;DHT22;4635;48.686;9.008;2023-04-29T10:37:39;18.20;1.00
9201;DHT22;4635;48.686;9.008;2023-04-29T10:40:29;17.90;1.00
9201;DHT22;4635;48.686;9.008;2023-04-29T10:51:59;22.10;1.00
9201;DHT22;4635;48.686;9.008;2023-04-29T10:55:00;21.30;1.00
9201;DHT22;4635;48.686;9.008;2023-04-29T10:57:35;21.60;1.00
9201;DHT22;4635;48.686;9.008;2023-04-29T11:00:05;21.00;99.90
9201;DHT22;4635;48.686;9.008;2023-04-29T11:02:54;20.20;1.00
9201;DHT22;4635;48.686;9.008;2023-04-29T11:05:34;20.50;1.00
9201;DHT22;4635;48.686;9.008;2023-04-29T11:08:18;21.10;1.00
9201;DHT22;4635;48.686;9.008;2023-04-29T11:11:07;21.60;99.90
9201;DHT22;4635;48.686;9.008;2023-04-29T11:14:11;21.10;99.90
9201;DHT22;4635;48.686;9.008;2023-04-29T11:16:55;20.60;99.90
9201;DHT22;4635;48.686;9.008;2023-04-29T11:19:29;21.20;99.90
9201;DHT22;4635;48.686;9.008;2023-04-29T11:22:23;22.80;1.00
9201;DHT22;4635;48.686;9.008;2023-04-29T11:37:01;24.80;99.90
9201;DHT22;4635;48.686;9.008;2023-04-29T11:39:47;23.30;99.90
9201;DHT22;4635;48.686;9.008;2023-04-29T11:42:43;22.90;1.00
9201;DHT22;4635;48.686;9.008;2023-04-29T11:45:23;22.10;1.00
9201;DHT22;4635;48.686;9.008;2023-04-29T11:48:08;22.80;1.00
9201;DHT22;4635;48.686;9.008;2023-04-29T11:50:45;24.00;99.90
9201;DHT22;4635;48.686;9.008;2023-04-29T12:19:59;22.30;1.00
9201;DHT22;4635;48.686;9.008;2023-04-29T12:22:46;21.90;27.00
9201;DHT22;4635;48.686;9.008;2023-04-29T12:25:37;21.90;99.90
9201;DHT22;4635;48.686;9.008;2023-04-29T12:28:15;22.00;71.80
9201;DHT22;4635;48.686;9.008;2023-04-29T12:31:10;21.30;25.00
9201;DHT22;4635;48.686;9.008;2023-04-29T12:33:44;20.90;1.00
9201;DHT22;4635;48.686;9.008;2023-04-29T12:36:19;20.60;1.00
9201;DHT22;4635;48.686;9.008;2023-04-29T12:38:56;20.00;1.00
9201;DHT22;4635;48.686;9.008;2023-04-29T12:41:41;19.80;99.90
9201;DHT22;4635;48.686;9.008;2023-04-29T12:47:30;20.20;1.00
9201;DHT22;4635;48.686;9.008;2023-04-29T12:50:14;20.00;99.90
9201;DHT22;4635;48.686;9.008;2023-04-29T13:04:30;20.60;90.90
9201;DHT22;4635;48.686;9.008;2023-04-29T13:07:09;21.00;1.00
9201;DHT22;4635;48.686;9.008;2023-04-29T13:09:52;20.80;1.00
9201;DHT22;4635;48.686;9.008;2023-04-29T13:12:51;20.60;99.90
9201;DHT22;4635;48.686;9.008;2023-04-29T13:15:44;19.80;91.00
9201;DHT22;4635;48.686;9.008;2023-04-29T13:18:13;19.20;1.00
9201;DHT22;4635;48.686;9.008;2023-04-29T13:21:04;19.40;36.50
9201;DHT22;4635;48.686;9.008;2023-04-29T13:23:39;20.00;1.00
9201;DHT22;4635;48.686;9.008;2023-04-29T13:26:28;20.10;16.20
9201;DHT22;4635;48.686;9.008;2023-04-29T13:29:08;21.70;27.20
9201;DHT22;4635;48.686;9.008;2023-04-29T13:31:59;22.70;1.00
9201;DHT22;4635;48.686;9.008;2023-04-29T13:34:41;22.50;1.00
9201;DHT22;4635;48.686;9.008;2023-04-29T13:43:21;23.60;99.90
9201;DHT22;4635;48.686;9.008;2023-04-29T13:46:06;22.20;99.90
9201;DHT22;4635;48.686;9.008;2023-04-29T13:48:41;20.70;1.00
9201;DHT22;4635;48.686;9.008;2023-04-29T13:51:16;19.20;1.00
9201;DHT22;4635;48.686;9.008;2023-04-29T13:54:08;18.60;99.90
9201;DHT22;4635;48.686;9.008;2023-04-29T13:56:50;18.10;99.90
9201;DHT22;4635;48.686;9.008;2023-04-29T14:05:27;17.40;1.00
9201;DHT22;4635;48.686;9.008;2023-04-29T14:08:16;17.40;1.00
9201;DHT22;4635;48.686;9.008;2023-04-29T14:10:57;17.00;1.00
9201;DHT22;4635;48.686;9.008;2023-04-29T14:13:31;17.10;1.00
9201;DHT22;4635;48.686;9.008;2023-04-29T14:16:05;17.10;1.00
9201;DHT22;4635;48.686;9.008;2023-04-29T14:18:57;17.50;1.00
9201;DHT22;4635;48.686;9.008;2023-04-29T14:21:47;17.60;1.00
9201;DHT22;4635;48.686;9.008;2023-04-29T14:24:23;17.40;1.00
9201;DHT22;4635;48.686;9.008;2023-04-29T14:27:00;17.20;1.00
9201;DHT22;4635;48.686;9.008;2023-04-29T14:30:05;17.20;1.00
9201;DHT22;4635;48.686;9.008;2023-04-29T14:32:54;17.00;1.00
9201;DHT22;4635;48.686;9.008;2023-04-29T14:35:43;17.00;1.00
9201;DHT22;4635;48.686;9.008;2023-04-29T14:38:23;16.50;1.00
9201;DHT22;4635;48.686;9.008;2023-04-29T14:43:57;16.50;1.00
9201;DHT22;4635;48.686;9.008;2023-04-29T14:46:48;16.70;1.00
9201;DHT22;4635;48.686;9.008;2023-04-29T14:49:38;16.80;1.00
9201;DHT22;4635;48.686;9.008;2023-04-29T14:52:31;16.80;1.00
9201;DHT22;4635;48.686;9.008;2023-04-29T14:55:07;16.80;1.00
9201;DHT22;4635;48.686;9.008;2023-04-29T14:57:59;16.80;1.00
9201;DHT22;4635;48.686;9.008;2023-04-29T15:00:52;16.50;1.00
9201;DHT22;4635;48.686;9.008;2023-04-29T15:03:40;16.60;90.40
9201;DHT22;4635;48.686;9.008;2023-04-29T15:06:35;16.60;98.70
9201;DHT22;4635;48.686;9.008;2023-04-29T15:09:21;16.60;80.50
9201;DHT22;4635;48.686;9.008;2023-04-29T15:18:05;15.90;99.90
9201;DHT22;4635;48.686;9.008;2023-04-29T15:20:49;15.90;99.90
9201;DHT22;4635;48.686;9.008;2023-04-29T15:26:39;16.20;99.90
9201;DHT22;4635;48.686;9.008;2023-04-29T15:29:37;16.10;99.90
9201;DHT22;4635;48.686;9.008;2023-04-29T15:32:25;15.90;99.90
9201;DHT22;4635;48.686;9.008;2023-04-29T15:35:18;15.60;99.90
9201;DHT22;4635;48.686;9.008;2023-04-29T15:37:54;15.50;99.90
9201;DHT22;4635;48.686;9.008;2023-04-29T15:40:37;15.70;99.90
9201;DHT22;4635;48.686;9.008;2023-04-29T15:43:26;15.90;99.90
9201;DHT22;4635;48.686;9.008;2023-04-29T15:46:13;15.50;99.90
9201;DHT22;4635;48.686;9.008;2023-04-29T15:48:47;15.40;99.90
9201;DHT22;4635;48.686;9.008;2023-04-29T15:57:23;14.60;99.90
9201;DHT22;4635;48.686;9.008;2023-04-29T16:00:07;14.60;99.90
9201;DHT22;4635;48.686;9.008;2023-04-29T16:02:40;14.70;99.90
9201;DHT22;4635;48.686;9.008;2023-04-29T16:08:24;14.50;99.90
9201;DHT22;4635;48.686;9.008;2023-04-29T16:10:55;14.50;99.90
9201;DHT22;4635;48.686;9.008;2023-04-29T16:22:46;13.60;1.00
9201;DHT22;4635;48.686;9.008;2023-04-29T16:25:20;13.60;1.00
9201;DHT22;4635;48.686;9.008;2023-04-29T16:28:07;13.50;1.00
9201;DHT22;4635;48.686;9.008;2023-04-29T16:30:36;13.60;1.00
9201;DHT22;4635;48.686;9.008;2023-04-29T16:33:31;13.50;1.00
9201;DHT22;4635;48.686;9.008;2023-04-29T16:36:23;13.50;96.10
9201;DHT22;4635;48.686;9.008;2023-04-29T16:41:57;13.50;99.90
9201;DHT22;4635;48.686;9.008;2023-04-29T16:44:36;13.40;1.00
9201;DHT22;4635;48.686;9.008;2023-04-29T16:47:11;13.30;1.00
9201;DHT22;4635;48.686;9.008;2023-04-29T16:50:00;13.30;1.00
9201;DHT22;4635;48.686;9.008;2023-04-29T16:52:51;13.20;1.00
9201;DHT22;4635;48.686;9.008;2023-04-29T16:55:35;13.20;99.90
9201;DHT22;4635;48.686;9.008;2023-04-29T17:04:00;13.20;1.00
9201;DHT22;4635;48.686;9.008;2023-04-29T17:06:30;13.20;99.90
9201;DHT22;4635;48.686;9.008;2023-04-29T17:09:02;13.20;1.00
9201;DHT22;4635;48.686;9.008;2023-04-29T17:11:40;13.20;1.00
9201;DHT22;4635;48.686;9.008;2023-04-29T17:14:15;13.10;1.00
9201;DHT22;4635;48.686;9.008;2023-04-29T17:16:57;13.00;1.00
9201;DHT22;4635;48.686;9.008;2023-04-29T17:19:34;12.70;99.90
9201;DHT22;4635;48.686;9.008;2023-04-29T17:22:05;12.80;99.90
9201;DHT22;4635;48.686;9.008;2023-04-29T17:24:38;12.80;99.90
9201;DHT22;4635;48.686;9.008;2023-04-29T17:27:20;12.90;1.00
9201;DHT22;4635;48.686;9.008;2023-04-29T17:30:06;12.80;99.90
9201;DHT22;4635;48.686;9.008;2023-04-29T17:32:45;12.90;88.00
9201;DHT22;4635;48.686;9.008;2023-04-29T17:35:38;12.80;1.00
9201;DHT22;4635;48.686;9.008;2023-04-29T17:38:18;12.80;1.00
9201;DHT22;4635;48.686;9.008;2023-04-29T17:40:53;12.70;99.90
9201;DHT22;4635;48.686;9.008;2023-04-29T17:43:28;12.80;1.00
9201;DHT22;4635;48.686;9.008;2023-04-29T17:46:03;12.70;99.90
9201;DHT22;4635;48.686;9.008;2023-04-29T17:49:12;12.80;1.00
9201;DHT22;4635;48.686;9.008;2023-04-29T17:51:47;12.80;99.90
9201;DHT22;4635;48.686;9.008;2023-04-29T17:54:18;12.80;99.90
9201;DHT22;4635;48.686;9.008;2023-04-29T17:57:10;12.80;1.00
9201;DHT22;4635;48.686;9.008;2023-04-29T17:59:41;12.80;99.90
9201;DHT22;4635;48.686;9.008;2023-04-29T18:02:28;12.80;99.90
9201;DHT22;4635;48.686;9.008;2023-04-29T18:05:10;12.80;1.00
9201;DHT22;4635;48.686;9.008;2023-04-29T18:08:04;12.80;1.00
9201;DHT22;4635;48.686;9.008;2023-04-29T18:10:37;12.90;1.00
9201;DHT22;4635;48.686;9.008;2023-04-29T18:13:13;12.90;99.90
9201;DHT22;4635;48.686;9.008;2023-04-29T18:15:44;12.80;1.00
9201;DHT22;4635;48.686;9.008;2023-04-29T18:18:18;12.70;1.00
9201;DHT22;4635;48.686;9.008;2023-04-29T18:20:47;12.70;1.00
9201;DHT22;4635;48.686;9.008;2023-04-29T18:26:04;12.50;1.00
9201;DHT22;4635;48.686;9.008;2023-04-29T18:28:35;12.50;99.90
9201;DHT22;4635;48.686;9.008;2023-04-29T18:31:04;12.40;99.90
9201;DHT22;4635;48.686;9.008;2023-04-29T18:33:45;12.40;99.90
9201;DHT22;4635;48.686;9.008;2023-04-29T18:36:29;12.40;99.90
9201;DHT22;4635;48.686;9.008;2023-04-29T18:39:07;12.40;46.30
9201;DHT22;4635;48.686;9.008;2023-04-29T18:41:40;12.50;99.90
9201;DHT22;4635;48.686;9.008;2023-04-29T18:44:19;12.40;1.00
9201;DHT22;4635;48.686;9.008;2023-04-29T18:46:52;12.40;1.00
9201;DHT22;4635;48.686;9.008;2023-04-29T18:49:24;12.30;1.00
9201;DHT22;4635;48.686;9.008;2023-04-29T18:52:05;12.40;1.00
9201;DHT22;4635;48.686;9.008;2023-04-29T18:54:42;12.30;1.00
9201;DHT22;4635;48.686;9.008;2023-04-29T18:57:14;12.30;99.90
9201;DHT22;4635;48.686;9.008;2023-04-29T18:59:58;12.30;99.90
9201;DHT22;4635;48.686;9.008;2023-04-29T19:02:35;12.20;1.00
9201;DHT22;4635;48.686;9.008;2023-04-29T19:05:15;12.20;99.90
9201;DHT22;4635;48.686;9.008;2023-04-29T19:08:05;12.10;1.00
9201;DHT22;4635;48.686;9.008;2023-04-29T19:11:00;12.10;1.00
9201;DHT22;4635;48.686;9.008;2023-04-29T19:13:32;12.00;1.00
9201;DHT22;4635;48.686;9.008;2023-04-29T19:16:04;12.00;1.00
9201;DHT22;4635;48.686;9.008;2023-04-29T19:18:47;12.00;99.90
9201;DHT22;4635;48.686;9.008;2023-04-29T19:21:18;12.00;93.50
9201;DHT22;4635;48.686;9.008;2023-04-29T19:23:50;11.90;99.90
9201;DHT22;4635;48.686;9.008;2023-04-29T19:26:30;12.00;1.00
9201;DHT22;4635;48.686;9.008;2023-04-29T19:29:10;11.90;99.90
9201;DHT22;4635;48.686;9.008;2023-04-29T19:31:52;11.80;1.00
9201;DHT22;4635;48.686;9.008;2023-04-29T19:34:59;11.80;1.00
9201;DHT22;4635;48.686;9.008;2023-04-29T19:37:31;11.80;99.90
9201;DHT22;4635;48.686;9.008;2023-04-29T19:40:04;11.70;1.00
9201;DHT22;4635;48.686;9.008;2023-04-29T19:42:36;11.70;1.00
9201;DHT22;4635;48.686;9.008;2023-04-29T19:45:21;11.70;1.00
9201;DHT22;4635;48.686;9.008;2023-04-29T19:48:03;11.80;1.00
9201;DHT22;4635;48.686;9.008;2023-04-29T19:50:42;11.70;99.90
9201;DHT22;4635;48.686;9.008;2023-04-29T19:53:29;11.60;99.90
9201;DHT22;4635;48.686;9.008;2023-04-29T19:56:05;11.50;1.00
9201;DHT22;4635;48.686;9.008;2023-04-29T19:58:36;11.50;1.00
9201;DHT22;4635;48.686;9.008;2023-04-29T20:01:24;11.50;1.00
9201;DHT22;4635;48.686;9.008;2023-04-29T20:03:55;11.60;99.90
9201;DHT22;4635;48.686;9.008;2023-04-29T20:06:31;11.60;1.00
9201;DHT22;4635;48.686;9.008;2023-04-29T20:09:10;11.60;1.00
9201;DHT22;4635;48.686;9.008;2023-04-29T20:11:46;11.50;11.50
9201;DHT22;4635;48.686;9.008;2023-04-29T20:14:27;11.40;1.00
9201;DHT22;4635;48.686;9.008;2023-04-29T20:16:59;11.40;99.90
9201;DHT22;4635;48.686;9.008;2023-04-29T20:19:33;11.50;1.00
9201;DHT22;4635;48.686;9.008;2023-04-29T20:22:13;11.50;1.00
9201;DHT22;4635;48.686;9.008;2023-04-29T20:24:47;11.60;99.90
9201;DHT22;4635;48.686;9.008;2023-04-29T20:27:31;11.60;1.00
9201;DHT22;4635;48.686;9.008;2023-04-29T20:30:08;11.50;1.00
9201;DHT22;4635;48.686;9.008;2023-04-29T20:32:45;11.40;99.90
9201;DHT22;4635;48.686;9.008;2023-04-29T20:35:31;11.50;86.30
9201;DHT22;4635;48.686;9.008;2023-04-29T20:38:12;11.50;1.00
9201;DHT22;4635;48.686;9.008;2023-04-29T20:40:51;11.50;99.90
9201;DHT22;4635;48.686;9.008;2023-04-29T20:43:28;11.50;1.00
9201;DHT22;4635;48.686;9.008;2023-04-29T20:46:13;11.60;1.00
9201;DHT22;4635;48.686;9.008;2023-04-29T20:49:04;11.50;99.90
9201;DHT22;4635;48.686;9.008;2023-04-29T20:51:39;11.50;1.00
9201;DHT22;4635;48.686;9.008;2023-04-29T20:54:08;11.50;99.90
9201;DHT22;4635;48.686;9.008;2023-04-29T20:56:45;11.50;1.00
9201;DHT22;4635;48.686;9.008;2023-04-29T20:59:39;11.60;1.00
9201;DHT22;4635;48.686;9.008;2023-04-29T21:02:08;11.60;99.90
9201;DHT22;4635;48.686;9.008;2023-04-29T21:04:44;11.60;1.00
9201;DHT22;4635;48.686;9.008;2023-04-29T21:07:26;11.50;99.90
9201;DHT22;4635;48.686;9.008;2023-04-29T21:10:06;11.50;99.90
9201;DHT22;4635;48.686;9.008;2023-04-29T21:12:51;11.50;1.00
9201;DHT22;4635;48.686;9.008;2023-04-29T21:15:45;11.50;1.00
9201;DHT22;4635;48.686;9.008;2023-04-29T21:18:37;11.50;75.20
9201;DHT22;4635;48.686;9.008;2023-04-29T21:21:25;11.50;99.90
9201;DHT22;4635;48.686;9.008;2023-04-29T21:24:10;11.50;26.30
9201;DHT22;4635;48.686;9.008;2023-04-29T21:26:48;11.50;99.90
9201;DHT22;4635;48.686;9.008;2023-04-29T21:29:21;11.50;99.90
9201;DHT22;4635;48.686;9.008;2023-04-29T21:32:20;11.60;1.00
9201;DHT22;4635;48.686;9.008;2023-04-29T21:34:55;11.40;1.00
9201;DHT22;4635;48.686;9.008;2023-04-29T21:37:43;11.30;99.90
9201;DHT22;4635;48.686;9.008;2023-04-29T21:40:14;11.50;99.90
9201;DHT22;4635;48.686;9.008;2023-04-29T21:43:00;11.40;1.00
9201;DHT22;4635;48.686;9.008;2023-04-29T21:45:31;11.30;99.90
9201;DHT22;4635;48.686;9.008;2023-04-29T21:48:03;11.30;1.00
9201;DHT22;4635;48.686;9.008;2023-04-29T21:50:40;11.20;1.00
9201;DHT22;4635;48.686;9.008;2023-04-29T21:53:13;11.30;99.90
9201;DHT22;4635;48.686;9.008;2023-04-29T21:55:54;11.30;1.00
9201;DHT22;4635;48.686;9.008;2023-04-29T21:58:28;11.10;99.90
9201;DHT22;4635;48.686;9.008;2023-04-29T22:01:01;11.10;99.90
9201;DHT22;4635;48.686;9.008;2023-04-29T22:03:51;11.10;99.90
9201;DHT22;4635;48.686;9.008;2023-04-29T22:06:28;11.10;1.00
9201;DHT22;4635;48.686;9.008;2023-04-29T22:09:16;11.10;1.00
9201;DHT22;4635;48.686;9.008;2023-04-29T22:11:45;11.10;1.00
9201;DHT22;4635;48.686;9.008;2023-04-29T22:14:20;11.10;1.00
9201;DHT22;4635;48.686;9.008;2023-04-29T22:17:01;11.10;49.30
9201;DHT22;4635;48.686;9.008;2023-04-29T22:19:37;11.00;99.90
9201;DHT22;4635;48.686;9.008;2023-04-29T22:22:10;11.00;1.00
9201;DHT22;4635;48.686;9.008;2023-04-29T22:24:42;10.90;99.90
9201;DHT22;4635;48.686;9.008;2023-04-29T22:27:12;10.90;99.90
9201;DHT22;4635;48.686;9.008;2023-04-29T22:29:43;10.90;1.00
9201;DHT22;4635;48.686;9.008;2023-04-29T22:32:15;10.90;1.00
9201;DHT22;4635;48.686;9.008;2023-04-29T22:34:57;10.90;1.00
9201;DHT22;4635;48.686;9.008;2023-04-29T22:37:26;10.90;1.00
9201;DHT22;4635;48.686;9.008;2023-04-29T22:40:01;10.90;1.00
9201;DHT22;4635;48.686;9.008;2023-04-29T22:42:31;10.90;1.00
9201;DHT22;4635;48.686;9.008;2023-04-29T22:45:03;10.90;1.00
9201;DHT22;4635;48.686;9.008;2023-04-29T22:47:34;11.10;1.00
9201;DHT22;4635;48.686;9.008;2023-04-29T22:50:03;10.80;1.00
9201;DHT22;4635;48.686;9.008;2023-04-29T22:52:32;10.70;19.30
9201;DHT22;4635;48.686;9.008;2023-04-29T22:55:04;10.70;1.00
9201;DHT22;4635;48.686;9.008;2023-04-29T22:57:38;10.70;99.90
9201;DHT22;4635;48.686;9.008;2023-04-29T23:00:15;10.70;1.00
9201;DHT22;4635;48.686;9.008;2023-04-29T23:02:47;10.80;1.00
9201;DHT22;4635;48.686;9.008;2023-04-29T23:05:17;10.80;1.00
9201;DHT22;4635;48.686;9.008;2023-04-29T23:07:47;10.80;99.90
9201;DHT22;4635;48.686;9.008;2023-04-29T23:10:18;10.70;1.00
9201;DHT22;4635;48.686;9.008;2023-04-29T23:12:48;10.80;99.90
9201;DHT22;4635;48.686;9.008;2023-04-29T23:15:18;10.80;99.90
9201;DHT22;4635;48.686;9.008;2023-04-29T23:17:48;10.70;99.90
9201;DHT22;4635;48.686;9.008;2023-04-29T23:20:16;10.60;1.00
9201;DHT22;4635;48.686;9.008;2023-04-29T23:22:45;10.70;1.00
9201;DHT22;4635;48.686;9.008;2023-04-29T23:25:16;10.70;1.00
9201;DHT22;4635;48.686;9.008;2023-04-29T23:27:47;10.80;1.00
9201;DHT22;4635;48.686;9.008;2023-04-29T23:30:17;10.90;1.00
9201;DHT22;4635;48.686;9.008;2023-04-29T23:32:45;10.90;1.00
9201;DHT22;4635;48.686;9.008;2023-04-29T23:35:35;10.80;1.00
9201;DHT22;4635;48.686;9.008;2023-04-29T23:38:03;10.90;99.90
9201;DHT22;4635;48.686;9.008;2023-04-29T23:40:36;10.90;1.00
9201;DHT22;4635;48.686;9.008;2023-04-29T23:43:04;10.90;43.70
9201;DHT22;4635;48.686;9.008;2023-04-29T23:45:35;10.90;51.50
9201;DHT22;4635;48.686;9.008;2023-04-29T23:48:06;10.90;99.90
9201;DHT22;4635;48.686;9.008;2023-04-29T23:50:43;10.90;99.90
9201;DHT22;4635;48.686;9.008;2023-04-29T23:53:15;10.80;99.90
9201;DHT22;4635;48.686;9.008;2023-04-29T23:56:01;10.90;99.90
9201;DHT22;4635;48.686;9.008;2023-04-29T23:58:33;10.90;99.90
